sensor_id;sensor_type;location;lat;lon;timestamp;pressure;altitude;pressure_sealevel;temperature;humidity
21826;BME280;11075;47.944;11.776;2024-03-06T00:01:18;94596.00;;;0.30;83.51
21826;BME280;11075;47.944;11.776;2024-03-06T00:03:45;94601.53;;;0.17;85.26
21826;BME280;11075;47.944;11.776;2024-03-06T00:06:12;94597.13;;;1.01;79.94
21826;BME280;11075;47.944;11.776;2024-03-06T00:08:38;94595.31;;;1.41;76.96
21826;BME280;11075;47.944;11.776;2024-03-06T00:11:05;94599.66;;;0.29;81.87
21826;BME280;11075;47.944;11.776;2024-03-06T00:13:32;94597.59;;;0.31;82.12
21826;BME280;11075;47.944;11.776;2024-03-06T00:15:59;94606.00;;;-0.12;85.27
21826;BME280;11075;47.944;11.776;2024-03-06T00:18:25;94598.03;;;0.73;82.18
21826;BME280;11075;47.944;11.776;2024-03-06T00:20:52;94598.72;;;1.02;77.65
21826;BME280;11075;47.944;11.776;2024-03-06T00:23:19;94598.44;;;0.49;79.75
21826;BME280;11075;47.944;11.776;2024-03-06T00:25:46;94601.13;;;1.43;77.24
21826;BME280;11075;47.944;11.776;2024-03-06T00:28:13;94603.31;;;0.28;77.98
21826;BME280;11075;47.944;11.776;2024-03-06T00:30:39;94603.13;;;0.80;78.82
21826;BME280;11075;47.944;11.776;2024-03-06T00:33:06;94603.91;;;0.81;78.20
21826;BME280;11075;47.944;11.776;2024-03-06T00:35:33;94607.19;;;0.71;80.06
21826;BME280;11075;47.944;11.776;2024-03-06T00:37:59;94604.69;;;0.98;78.00
21826;BME280;11075;47.944;11.776;2024-03-06T00:40:29;94605.09;;;0.39;82.93
21826;BME280;11075;47.944;11.776;2024-03-06T00:42:59;94609.34;;;-0.28;83.83
21826;BME280;11075;47.944;11.776;2024-03-06T00:45:26;94605.31;;;-0.47;83.97
21826;BME280;11075;47.944;11.776;2024-03-06T00:47:53;94604.06;;;0.12;81.96
21826;BME280;11075;47.944;11.776;2024-03-06T00:50:19;94613.09;;;-0.64;85.96
21826;BME280;11075;47.944;11.776;2024-03-06T00:52:48;94602.94;;;-0.20;84.04
21826;BME280;11075;47.944;11.776;2024-03-06T00:55:15;94613.06;;;-0.52;85.06
21826;BME280;11075;47.944;11.776;2024-03-06T00:57:42;94609.59;;;-0.93;85.09
21826;BME280;11075;47.944;11.776;2024-03-06T01:00:09;94610.16;;;-0.28;82.73
21826;BME280;11075;47.944;11.776;2024-03-06T01:02:39;94601.00;;;-0.53;84.88
21826;BME280;11075;47.944;11.776;2024-03-06T01:05:06;94611.00;;;-0.50;83.23
21826;BME280;11075;47.944;11.776;2024-03-06T01:07:33;94607.94;;;-0.59;84.23
21826;BME280;11075;47.944;11.776;2024-03-06T01:10:01;94614.59;;;0.29;79.46
21826;BME280;11075;47.944;11.776;2024-03-06T01:12:28;94610.44;;;0.45;76.78
21826;BME280;11075;47.944;11.776;2024-03-06T01:14:55;94617.25;;;-0.40;79.43
21826;BME280;11075;47.944;11.776;2024-03-06T01:17:22;94613.72;;;0.52;76.36
21826;BME280;11075;47.944;11.776;2024-03-06T01:19:49;94619.34;;;-0.13;79.38
21826;BME280;11075;47.944;11.776;2024-03-06T01:22:16;94625.69;;;-0.38;80.87
21826;BME280;11075;47.944;11.776;2024-03-06T01:24:43;94617.06;;;-0.10;79.71
21826;BME280;11075;47.944;11.776;2024-03-06T01:27:09;94620.63;;;-0.68;81.31
21826;BME280;11075;47.944;11.776;2024-03-06T01:29:36;94621.31;;;-0.72;81.06
21826;BME280;11075;47.944;11.776;2024-03-06T01:32:03;94618.84;;;-0.39;80.59
21826;BME280;11075;47.944;11.776;2024-03-06T01:34:30;94617.88;;;-0.61;81.73
21826;BME280;11075;47.944;11.776;2024-03-06T01:36:57;94621.31;;;-0.84;84.99
21826;BME280;11075;47.944;11.776;2024-03-06T01:39:24;94623.44;;;-0.06;79.34
21826;BME280;11075;47.944;11.776;2024-03-06T01:41:50;94622.03;;;0.03;78.28
21826;BME280;11075;47.944;11.776;2024-03-06T01:44:17;94625.81;;;-1.61;87.23
21826;BME280;11075;47.944;11.776;2024-03-06T01:46:45;94621.66;;;-1.27;85.32
21826;BME280;11075;47.944;11.776;2024-03-06T01:49:12;94609.44;;;-0.63;82.26
21826;BME280;11075;47.944;11.776;2024-03-06T01:51:54;94618.00;;;-1.26;84.87
21826;BME280;11075;47.944;11.776;2024-03-06T01:54:22;94611.94;;;-1.62;85.47
21826;BME280;11075;47.944;11.776;2024-03-06T01:56:49;94611.06;;;-1.32;85.00
21826;BME280;11075;47.944;11.776;2024-03-06T01:59:17;94612.78;;;-1.14;82.62
21826;BME280;11075;47.944;11.776;2024-03-06T02:01:57;94604.69;;;-1.13;82.48
21826;BME280;11075;47.944;11.776;2024-03-06T02:04:24;94605.84;;;-0.97;81.93
21826;BME280;11075;47.944;11.776;2024-03-06T02:06:54;94618.47;;;-1.82;84.62
21826;BME280;11075;47.944;11.776;2024-03-06T02:09:21;94618.13;;;-1.33;82.55
21826;BME280;11075;47.944;11.776;2024-03-06T02:11:49;94621.31;;;-1.19;83.79
21826;BME280;11075;47.944;11.776;2024-03-06T02:14:20;94613.31;;;-1.59;85.89
21826;BME280;11075;47.944;11.776;2024-03-06T02:16:46;94614.03;;;-1.17;85.07
21826;BME280;11075;47.944;11.776;2024-03-06T02:19:13;94610.94;;;-0.27;78.69
21826;BME280;11075;47.944;11.776;2024-03-06T02:21:40;94611.28;;;-1.45;82.86
21826;BME280;11075;47.944;11.776;2024-03-06T02:24:07;94604.47;;;-1.35;82.85
21826;BME280;11075;47.944;11.776;2024-03-06T02:26:38;94605.72;;;-0.91;81.30
21826;BME280;11075;47.944;11.776;2024-03-06T02:29:05;94604.56;;;-0.95;79.65
21826;BME280;11075;47.944;11.776;2024-03-06T02:31:32;94604.31;;;-1.63;84.35
21826;BME280;11075;47.944;11.776;2024-03-06T02:34:00;94610.78;;;-2.26;88.07
21826;BME280;11075;47.944;11.776;2024-03-06T02:36:28;94605.72;;;-1.37;84.05
21826;BME280;11075;47.944;11.776;2024-03-06T02:38:55;94600.72;;;-1.04;82.08
21826;BME280;11075;47.944;11.776;2024-03-06T02:41:22;94603.56;;;-2.12;87.85
21826;BME280;11075;47.944;11.776;2024-03-06T02:43:48;94607.91;;;-1.76;82.91
21826;BME280;11075;47.944;11.776;2024-03-06T02:46:15;94606.75;;;-1.27;81.71
21826;BME280;11075;47.944;11.776;2024-03-06T02:48:42;94600.19;;;-1.71;85.52
21826;BME280;11075;47.944;11.776;2024-03-06T02:51:08;94599.34;;;-1.06;81.56
21826;BME280;11075;47.944;11.776;2024-03-06T02:53:35;94602.97;;;-0.96;80.35
21826;BME280;11075;47.944;11.776;2024-03-06T02:56:02;94595.00;;;-1.36;81.15
21826;BME280;11075;47.944;11.776;2024-03-06T02:58:29;94600.34;;;-1.54;82.79
21826;BME280;11075;47.944;11.776;2024-03-06T03:00:58;94603.72;;;-1.65;84.12
21826;BME280;11075;47.944;11.776;2024-03-06T03:03:25;94591.34;;;-1.46;81.15
21826;BME280;11075;47.944;11.776;2024-03-06T03:05:51;94599.50;;;-2.74;88.74
21826;BME280;11075;47.944;11.776;2024-03-06T03:08:18;94608.09;;;-1.89;85.48
21826;BME280;11075;47.944;11.776;2024-03-06T03:10:45;94608.00;;;-1.06;81.17
21826;BME280;11075;47.944;11.776;2024-03-06T03:13:12;94599.41;;;-1.71;83.34
21826;BME280;11075;47.944;11.776;2024-03-06T03:15:38;94601.88;;;-1.76;82.56
21826;BME280;11075;47.944;11.776;2024-03-06T03:18:07;94607.41;;;-1.96;85.08
21826;BME280;11075;47.944;11.776;2024-03-06T03:20:34;94599.69;;;-1.26;82.33
21826;BME280;11075;47.944;11.776;2024-03-06T03:23:02;94593.66;;;-1.27;80.64
21826;BME280;11075;47.944;11.776;2024-03-06T03:25:29;94597.84;;;-1.37;81.00
21826;BME280;11075;47.944;11.776;2024-03-06T03:27:56;94597.28;;;-1.39;80.86
21826;BME280;11075;47.944;11.776;2024-03-06T03:30:23;94601.13;;;-1.54;81.07
21826;BME280;11075;47.944;11.776;2024-03-06T03:32:49;94594.66;;;-1.39;81.70
21826;BME280;11075;47.944;11.776;2024-03-06T03:35:16;94602.63;;;-1.46;83.23
21826;BME280;11075;47.944;11.776;2024-03-06T03:37:43;94594.09;;;-0.95;75.85
21826;BME280;11075;47.944;11.776;2024-03-06T03:40:10;94604.06;;;-1.73;85.66
21826;BME280;11075;47.944;11.776;2024-03-06T03:42:38;94603.94;;;-1.67;81.57
21826;BME280;11075;47.944;11.776;2024-03-06T03:45:05;94606.56;;;-2.08;83.08
21826;BME280;11075;47.944;11.776;2024-03-06T03:47:32;94611.72;;;-1.60;83.65
21826;BME280;11075;47.944;11.776;2024-03-06T03:49:58;94613.31;;;-2.01;85.53
21826;BME280;11075;47.944;11.776;2024-03-06T03:52:36;94618.25;;;-1.81;83.54
21826;BME280;11075;47.944;11.776;2024-03-06T03:55:04;94615.59;;;-1.93;84.31
21826;BME280;11075;47.944;11.776;2024-03-06T03:57:30;94617.06;;;-1.97;84.55
21826;BME280;11075;47.944;11.776;2024-03-06T03:59:57;94617.03;;;-1.67;80.92
21826;BME280;11075;47.944;11.776;2024-03-06T04:02:24;94617.06;;;-1.97;82.55
21826;BME280;11075;47.944;11.776;2024-03-06T04:04:51;94613.09;;;-1.46;81.91
21826;BME280;11075;47.944;11.776;2024-03-06T04:07:18;94623.81;;;-1.36;80.03
21826;BME280;11075;47.944;11.776;2024-03-06T04:09:45;94612.94;;;-1.63;80.17
21826;BME280;11075;47.944;11.776;2024-03-06T04:12:12;94619.59;;;-1.37;79.09
21826;BME280;11075;47.944;11.776;2024-03-06T04:14:38;94628.56;;;-1.44;79.19
21826;BME280;11075;47.944;11.776;2024-03-06T04:17:06;94626.78;;;-1.32;78.68
21826;BME280;11075;47.944;11.776;2024-03-06T04:19:33;94629.25;;;-1.91;82.92
21826;BME280;11075;47.944;11.776;2024-03-06T04:21:59;94632.59;;;-1.30;80.93
21826;BME280;11075;47.944;11.776;2024-03-06T04:24:26;94634.97;;;-1.82;83.39
21826;BME280;11075;47.944;11.776;2024-03-06T04:26:53;94633.50;;;-1.78;80.95
21826;BME280;11075;47.944;11.776;2024-03-06T04:29:20;94636.94;;;-1.12;78.70
21826;BME280;11075;47.944;11.776;2024-03-06T04:31:46;94642.16;;;-2.07;83.75
21826;BME280;11075;47.944;11.776;2024-03-06T04:34:13;94647.53;;;-1.61;82.94
21826;BME280;11075;47.944;11.776;2024-03-06T04:36:40;94645.75;;;-1.90;83.36
21826;BME280;11075;47.944;11.776;2024-03-06T04:39:06;94646.72;;;-2.03;84.54
21826;BME280;11075;47.944;11.776;2024-03-06T04:41:34;94643.84;;;-1.83;81.56
21826;BME280;11075;47.944;11.776;2024-03-06T04:44:00;94640.53;;;-1.37;80.09
21826;BME280;11075;47.944;11.776;2024-03-06T04:46:27;94642.47;;;-1.86;82.71
21826;BME280;11075;47.944;11.776;2024-03-06T04:48:54;94643.25;;;-1.43;82.25
21826;BME280;11075;47.944;11.776;2024-03-06T04:51:21;94645.91;;;-1.20;78.70
21826;BME280;11075;47.944;11.776;2024-03-06T04:53:48;94643.31;;;-2.03;82.52
21826;BME280;11075;47.944;11.776;2024-03-06T04:56:14;94649.13;;;-2.01;85.75
21826;BME280;11075;47.944;11.776;2024-03-06T04:58:42;94654.50;;;-2.14;87.29
21826;BME280;11075;47.944;11.776;2024-03-06T05:01:14;94662.28;;;-1.36;81.25
21826;BME280;11075;47.944;11.776;2024-03-06T05:03:40;94658.38;;;-1.87;81.64
21826;BME280;11075;47.944;11.776;2024-03-06T05:06:24;94662.00;;;-1.58;80.17
21826;BME280;11075;47.944;11.776;2024-03-06T05:09:08;94658.59;;;-1.59;81.32
21826;BME280;11075;47.944;11.776;2024-03-06T05:11:55;94660.44;;;-1.89;83.62
21826;BME280;11075;47.944;11.776;2024-03-06T05:14:39;94666.25;;;-1.45;80.40
21826;BME280;11075;47.944;11.776;2024-03-06T05:17:23;94665.59;;;-1.29;78.91
21826;BME280;11075;47.944;11.776;2024-03-06T05:20:08;94670.31;;;-1.61;81.11
21826;BME280;11075;47.944;11.776;2024-03-06T05:22:52;94666.47;;;-1.89;82.98
21826;BME280;11075;47.944;11.776;2024-03-06T05:25:36;94670.50;;;-1.21;81.03
21826;BME280;11075;47.944;11.776;2024-03-06T05:28:19;94681.44;;;-1.66;83.80
21826;BME280;11075;47.944;11.776;2024-03-06T05:31:13;94683.44;;;-1.38;79.71
21826;BME280;11075;47.944;11.776;2024-03-06T05:33:59;94682.16;;;-1.89;84.50
21826;BME280;11075;47.944;11.776;2024-03-06T05:36:44;94684.72;;;-1.70;83.94
21826;BME280;11075;47.944;11.776;2024-03-06T05:39:28;94683.75;;;-0.81;77.85
21826;BME280;11075;47.944;11.776;2024-03-06T05:42:12;94681.31;;;-0.36;73.90
21826;BME280;11075;47.944;11.776;2024-03-06T05:44:59;94677.28;;;-1.43;79.13
21826;BME280;11075;47.944;11.776;2024-03-06T05:47:48;94680.22;;;-1.52;80.40
21826;BME280;11075;47.944;11.776;2024-03-06T05:50:33;94689.63;;;-1.32;78.17
21826;BME280;11075;47.944;11.776;2024-03-06T05:53:17;94692.25;;;-1.92;84.54
21826;BME280;11075;47.944;11.776;2024-03-06T05:56:01;94695.91;;;-1.10;79.99
21826;BME280;11075;47.944;11.776;2024-03-06T05:58:45;94696.06;;;-1.46;80.82
21826;BME280;11075;47.944;11.776;2024-03-06T06:01:14;94697.38;;;-1.26;81.81
21826;BME280;11075;47.944;11.776;2024-03-06T06:03:42;94698.22;;;-1.02;79.02
21826;BME280;11075;47.944;11.776;2024-03-06T06:06:08;94702.75;;;-0.39;78.39
21826;BME280;11075;47.944;11.776;2024-03-06T06:08:35;94712.66;;;-1.11;79.85
21826;BME280;11075;47.944;11.776;2024-03-06T06:11:02;94707.66;;;-1.01;77.49
21826;BME280;11075;47.944;11.776;2024-03-06T06:13:31;94719.84;;;-0.95;79.31
21826;BME280;11075;47.944;11.776;2024-03-06T06:15:58;94714.38;;;-0.93;76.97
21826;BME280;11075;47.944;11.776;2024-03-06T06:18:25;94720.75;;;-1.01;78.45
21826;BME280;11075;47.944;11.776;2024-03-06T06:20:51;94727.69;;;-1.06;79.75
21826;BME280;11075;47.944;11.776;2024-03-06T06:23:18;94724.09;;;-0.47;76.01
21826;BME280;11075;47.944;11.776;2024-03-06T06:25:45;94732.38;;;-1.50;80.19
21826;BME280;11075;47.944;11.776;2024-03-06T06:28:12;94730.81;;;-0.74;76.89
21826;BME280;11075;47.944;11.776;2024-03-06T06:30:38;94729.09;;;-0.80;76.10
21826;BME280;11075;47.944;11.776;2024-03-06T06:33:05;94736.13;;;-1.04;78.17
21826;BME280;11075;47.944;11.776;2024-03-06T06:35:32;94738.31;;;-0.90;77.51
21826;BME280;11075;47.944;11.776;2024-03-06T06:38:00;94742.81;;;-1.20;79.72
21826;BME280;11075;47.944;11.776;2024-03-06T06:40:27;94739.78;;;-1.95;81.44
21826;BME280;11075;47.944;11.776;2024-03-06T06:42:54;94742.81;;;-1.80;81.71
21826;BME280;11075;47.944;11.776;2024-03-06T06:45:21;94742.78;;;-1.32;80.68
21826;BME280;11075;47.944;11.776;2024-03-06T06:47:51;94746.44;;;-1.81;83.79
21826;BME280;11075;47.944;11.776;2024-03-06T06:50:18;94747.00;;;-1.61;80.14
21826;BME280;11075;47.944;11.776;2024-03-06T06:52:48;94753.53;;;-2.43;84.45
21826;BME280;11075;47.944;11.776;2024-03-06T06:55:15;94745.75;;;-1.58;82.25
21826;BME280;11075;47.944;11.776;2024-03-06T06:57:41;94750.41;;;-2.08;84.17
21826;BME280;11075;47.944;11.776;2024-03-06T07:00:08;94739.03;;;-1.84;80.76
21826;BME280;11075;47.944;11.776;2024-03-06T07:02:38;94752.28;;;-1.49;82.95
21826;BME280;11075;47.944;11.776;2024-03-06T07:05:06;94753.19;;;-1.73;81.78
21826;BME280;11075;47.944;11.776;2024-03-06T07:07:33;94755.03;;;-1.44;80.67
21826;BME280;11075;47.944;11.776;2024-03-06T07:10:03;94755.34;;;-1.22;81.60
21826;BME280;11075;47.944;11.776;2024-03-06T07:12:31;94754.72;;;-1.36;81.71
21826;BME280;11075;47.944;11.776;2024-03-06T07:14:58;94757.03;;;-1.58;82.77
21826;BME280;11075;47.944;11.776;2024-03-06T07:17:25;94749.38;;;-1.29;82.59
21826;BME280;11075;47.944;11.776;2024-03-06T07:19:52;94756.59;;;-1.55;80.91
21826;BME280;11075;47.944;11.776;2024-03-06T07:22:19;94749.34;;;-0.99;79.34
21826;BME280;11075;47.944;11.776;2024-03-06T07:24:45;94756.59;;;-1.13;79.65
21826;BME280;11075;47.944;11.776;2024-03-06T07:27:12;94757.84;;;-1.15;77.83
21826;BME280;11075;47.944;11.776;2024-03-06T07:29:39;94765.69;;;-1.27;79.95
21826;BME280;11075;47.944;11.776;2024-03-06T07:32:06;94762.63;;;-1.24;80.51
21826;BME280;11075;47.944;11.776;2024-03-06T07:34:33;94770.97;;;-1.45;80.08
21826;BME280;11075;47.944;11.776;2024-03-06T07:37:00;94765.66;;;-0.85;79.08
21826;BME280;11075;47.944;11.776;2024-03-06T07:39:30;94768.53;;;-1.29;80.80
21826;BME280;11075;47.944;11.776;2024-03-06T07:41:58;94767.44;;;-1.69;86.32
21826;BME280;11075;47.944;11.776;2024-03-06T07:44:24;94773.34;;;-1.44;80.58
21826;BME280;11075;47.944;11.776;2024-03-06T07:46:51;94777.63;;;-0.78;79.19
21826;BME280;11075;47.944;11.776;2024-03-06T07:49:20;94778.69;;;-1.21;82.80
21826;BME280;11075;47.944;11.776;2024-03-06T07:51:48;94786.53;;;-0.79;78.95
21826;BME280;11075;47.944;11.776;2024-03-06T07:54:15;94788.91;;;-0.77;77.76
21826;BME280;11075;47.944;11.776;2024-03-06T07:56:42;94786.34;;;-1.07;81.29
21826;BME280;11075;47.944;11.776;2024-03-06T07:59:08;94786.22;;;-1.42;80.15
21826;BME280;11075;47.944;11.776;2024-03-06T08:01:36;94790.34;;;-1.35;81.37
21826;BME280;11075;47.944;11.776;2024-03-06T08:04:03;94794.50;;;-0.74;78.80
21826;BME280;11075;47.944;11.776;2024-03-06T08:06:29;94797.69;;;-0.83;77.02
21826;BME280;11075;47.944;11.776;2024-03-06T08:08:58;94801.41;;;-1.03;80.24
21826;BME280;11075;47.944;11.776;2024-03-06T08:11:28;94795.44;;;-0.45;77.11
21826;BME280;11075;47.944;11.776;2024-03-06T08:13:58;94804.09;;;-0.68;75.63
21826;BME280;11075;47.944;11.776;2024-03-06T08:16:25;94806.59;;;-0.61;77.77
21826;BME280;11075;47.944;11.776;2024-03-06T08:18:52;94805.34;;;-0.70;76.98
21826;BME280;11075;47.944;11.776;2024-03-06T08:21:18;94816.81;;;-1.73;83.17
21826;BME280;11075;47.944;11.776;2024-03-06T08:23:46;94810.22;;;-0.85;80.50
21826;BME280;11075;47.944;11.776;2024-03-06T08:26:16;94802.19;;;-1.02;78.51
21826;BME280;11075;47.944;11.776;2024-03-06T08:28:43;94814.31;;;-0.90;79.22
21826;BME280;11075;47.944;11.776;2024-03-06T08:31:10;94813.47;;;-1.02;78.76
21826;BME280;11075;47.944;11.776;2024-03-06T08:33:36;94812.31;;;-0.64;76.96
21826;BME280;11075;47.944;11.776;2024-03-06T08:36:04;94825.69;;;-0.31;75.58
21826;BME280;11075;47.944;11.776;2024-03-06T08:38:31;94823.91;;;-1.43;82.47
21826;BME280;11075;47.944;11.776;2024-03-06T08:40:57;94827.25;;;-0.53;77.87
21826;BME280;11075;47.944;11.776;2024-03-06T08:43:24;94823.84;;;-0.42;76.45
21826;BME280;11075;47.944;11.776;2024-03-06T08:45:51;94822.19;;;-1.68;82.38
21826;BME280;11075;47.944;11.776;2024-03-06T08:48:18;94829.22;;;-1.50;82.80
21826;BME280;11075;47.944;11.776;2024-03-06T08:50:45;94824.75;;;-0.48;79.96
21826;BME280;11075;47.944;11.776;2024-03-06T08:53:12;94828.06;;;-1.72;86.02
21826;BME280;11075;47.944;11.776;2024-03-06T08:55:40;94827.56;;;-1.14;80.91
21826;BME280;11075;47.944;11.776;2024-03-06T08:58:07;94833.19;;;-0.46;76.23
21826;BME280;11075;47.944;11.776;2024-03-06T09:00:35;94828.53;;;-0.09;74.18
21826;BME280;11075;47.944;11.776;2024-03-06T09:03:02;94827.31;;;-0.83;79.84
21826;BME280;11075;47.944;11.776;2024-03-06T09:05:28;94838.94;;;-0.79;81.65
21826;BME280;11075;47.944;11.776;2024-03-06T09:07:57;94841.41;;;-0.31;76.36
21826;BME280;11075;47.944;11.776;2024-03-06T09:10:27;94838.44;;;-0.23;77.25
21826;BME280;11075;47.944;11.776;2024-03-06T09:12:54;94847.81;;;-0.80;80.40
21826;BME280;11075;47.944;11.776;2024-03-06T09:15:21;94849.25;;;-0.96;79.86
21826;BME280;11075;47.944;11.776;2024-03-06T09:17:48;94850.06;;;-0.42;80.70
21826;BME280;11075;47.944;11.776;2024-03-06T09:20:15;94848.38;;;0.10;76.68
21826;BME280;11075;47.944;11.776;2024-03-06T09:22:43;94840.13;;;0.54;74.26
21826;BME280;11075;47.944;11.776;2024-03-06T09:25:10;94853.81;;;-0.91;79.42
21826;BME280;11075;47.944;11.776;2024-03-06T09:27:41;94851.91;;;0.39;75.08
21826;BME280;11075;47.944;11.776;2024-03-06T09:30:08;94859.75;;;-0.54;79.94
21826;BME280;11075;47.944;11.776;2024-03-06T09:32:37;94860.97;;;-0.68;79.48
21826;BME280;11075;47.944;11.776;2024-03-06T09:35:05;94859.00;;;0.04;76.81
21826;BME280;11075;47.944;11.776;2024-03-06T09:37:32;94854.97;;;-0.34;77.37
21826;BME280;11075;47.944;11.776;2024-03-06T09:39:59;94861.69;;;-0.49;81.72
21826;BME280;11075;47.944;11.776;2024-03-06T09:42:25;94866.34;;;-0.51;79.40
21826;BME280;11075;47.944;11.776;2024-03-06T09:44:52;94853.91;;;-0.68;81.75
21826;BME280;11075;47.944;11.776;2024-03-06T09:47:21;94870.25;;;-0.31;79.37
21826;BME280;11075;47.944;11.776;2024-03-06T09:49:53;94863.75;;;0.30;75.18
21826;BME280;11075;47.944;11.776;2024-03-06T09:52:22;94868.31;;;0.58;72.31
21826;BME280;11075;47.944;11.776;2024-03-06T09:54:52;94868.22;;;0.93;71.89
21826;BME280;11075;47.944;11.776;2024-03-06T09:57:19;94868.91;;;0.37;76.87
21826;BME280;11075;47.944;11.776;2024-03-06T09:59:46;94867.31;;;-0.11;76.22
21826;BME280;11075;47.944;11.776;2024-03-06T10:02:30;94873.84;;;0.33;75.16
21826;BME280;11075;47.944;11.776;2024-03-06T10:04:57;94877.59;;;0.37;74.79
21826;BME280;11075;47.944;11.776;2024-03-06T10:07:24;94873.94;;;0.15;74.96
21826;BME280;11075;47.944;11.776;2024-03-06T10:09:54;94883.44;;;-0.91;79.34
21826;BME280;11075;47.944;11.776;2024-03-06T10:12:21;94875.66;;;0.21;76.08
21826;BME280;11075;47.944;11.776;2024-03-06T10:14:48;94879.50;;;0.30;75.30
21826;BME280;11075;47.944;11.776;2024-03-06T10:17:18;94881.69;;;-0.25;76.50
21826;BME280;11075;47.944;11.776;2024-03-06T10:19:45;94880.22;;;0.37;74.69
21826;BME280;11075;47.944;11.776;2024-03-06T10:22:17;94885.28;;;0.79;72.04
21826;BME280;11075;47.944;11.776;2024-03-06T10:24:44;94884.75;;;-0.16;77.47
21826;BME280;11075;47.944;11.776;2024-03-06T10:27:14;94884.66;;;-0.22;76.74
21826;BME280;11075;47.944;11.776;2024-03-06T10:29:41;94894.44;;;-0.29;76.35
21826;BME280;11075;47.944;11.776;2024-03-06T10:32:09;94891.28;;;0.04;73.89
21826;BME280;11075;47.944;11.776;2024-03-06T10:34:37;94892.53;;;0.49;73.73
21826;BME280;11075;47.944;11.776;2024-03-06T10:37:07;94892.44;;;0.44;72.40
21826;BME280;11075;47.944;11.776;2024-03-06T10:39:33;94891.91;;;0.82;70.27
21826;BME280;11075;47.944;11.776;2024-03-06T10:42:05;94902.75;;;-0.73;78.57
21826;BME280;11075;47.944;11.776;2024-03-06T10:44:33;94900.00;;;0.80;72.13
21826;BME280;11075;47.944;11.776;2024-03-06T10:47:01;94904.16;;;0.64;73.12
21826;BME280;11075;47.944;11.776;2024-03-06T10:49:28;94904.19;;;0.41;72.59
21826;BME280;11075;47.944;11.776;2024-03-06T10:51:59;94907.97;;;0.33;73.78
21826;BME280;11075;47.944;11.776;2024-03-06T10:54:26;94916.50;;;-0.60;79.45
21826;BME280;11075;47.944;11.776;2024-03-06T10:56:54;94914.44;;;0.07;73.20
21826;BME280;11075;47.944;11.776;2024-03-06T10:59:21;94902.91;;;0.32;75.53
21826;BME280;11075;47.944;11.776;2024-03-06T11:01:50;94909.66;;;0.28;75.37
21826;BME280;11075;47.944;11.776;2024-03-06T11:04:17;94909.16;;;1.18;72.48
21826;BME280;11075;47.944;11.776;2024-03-06T11:06:44;94916.03;;;0.08;75.15
21826;BME280;11075;47.944;11.776;2024-03-06T11:09:12;94908.50;;;-0.11;73.83
21826;BME280;11075;47.944;11.776;2024-03-06T11:11:48;94908.16;;;0.32;72.71
21826;BME280;11075;47.944;11.776;2024-03-06T11:14:15;94923.78;;;-0.08;73.43
21826;BME280;11075;47.944;11.776;2024-03-06T11:17:04;94920.19;;;-0.37;75.67
21826;BME280;11075;47.944;11.776;2024-03-06T11:19:30;94923.41;;;-0.65;77.18
21826;BME280;11075;47.944;11.776;2024-03-06T11:21:57;94920.50;;;0.08;75.64
21826;BME280;11075;47.944;11.776;2024-03-06T11:24:31;94923.03;;;-0.39;76.65
21826;BME280;11075;47.944;11.776;2024-03-06T11:27:04;94928.84;;;-0.78;79.53
21826;BME280;11075;47.944;11.776;2024-03-06T11:32:19;94929.81;;;-0.91;78.16
21826;BME280;11075;47.944;11.776;2024-03-06T11:34:46;94919.97;;;-0.36;76.08
21826;BME280;11075;47.944;11.776;2024-03-06T11:37:13;94927.31;;;-0.14;72.56
21826;BME280;11075;47.944;11.776;2024-03-06T11:39:39;94920.34;;;-0.20;73.35
21826;BME280;11075;47.944;11.776;2024-03-06T11:42:09;94923.09;;;-0.15;74.02
21826;BME280;11075;47.944;11.776;2024-03-06T11:44:36;94929.19;;;-0.45;73.84
21826;BME280;11075;47.944;11.776;2024-03-06T11:47:03;94927.50;;;-0.69;77.22
21826;BME280;11075;47.944;11.776;2024-03-06T11:49:31;94927.19;;;-0.19;75.92
21826;BME280;11075;47.944;11.776;2024-03-06T11:52:04;94931.41;;;-0.90;76.11
21826;BME280;11075;47.944;11.776;2024-03-06T11:54:32;94933.94;;;-0.53;75.71
21826;BME280;11075;47.944;11.776;2024-03-06T11:57:00;94929.72;;;-0.55;76.43
21826;BME280;11075;47.944;11.776;2024-03-06T11:59:28;94931.09;;;-0.10;74.88
21826;BME280;11075;47.944;11.776;2024-03-06T12:01:55;94933.63;;;0.20;70.51
21826;BME280;11075;47.944;11.776;2024-03-06T12:04:22;94930.97;;;-0.15;73.63
21826;BME280;11075;47.944;11.776;2024-03-06T12:06:50;94936.78;;;-0.13;74.13
21826;BME280;11075;47.944;11.776;2024-03-06T12:09:17;94938.44;;;-0.72;76.76
21826;BME280;11075;47.944;11.776;2024-03-06T12:11:44;94932.09;;;-0.11;72.91
21826;BME280;11075;47.944;11.776;2024-03-06T12:14:15;94943.47;;;-0.29;74.59
21826;BME280;11075;47.944;11.776;2024-03-06T12:16:43;94946.22;;;-0.24;76.84
21826;BME280;11075;47.944;11.776;2024-03-06T12:19:10;94945.13;;;-0.05;70.40
21826;BME280;11075;47.944;11.776;2024-03-06T12:21:37;94936.13;;;0.03;73.03
21826;BME280;11075;47.944;11.776;2024-03-06T12:24:05;94943.72;;;-0.61;78.72
21826;BME280;11075;47.944;11.776;2024-03-06T12:26:32;94945.06;;;0.49;70.29
21826;BME280;11075;47.944;11.776;2024-03-06T12:31:33;94947.53;;;0.20;73.55
21826;BME280;11075;47.944;11.776;2024-03-06T12:34:00;94947.97;;;-0.06;72.82
21826;BME280;11075;47.944;11.776;2024-03-06T12:36:30;94950.91;;;-0.14;73.21
21826;BME280;11075;47.944;11.776;2024-03-06T12:39:01;94944.31;;;-0.59;74.74
21826;BME280;11075;47.944;11.776;2024-03-06T12:41:28;94951.94;;;-0.57;75.77
21826;BME280;11075;47.944;11.776;2024-03-06T12:43:56;94947.91;;;-0.71;77.23
21826;BME280;11075;47.944;11.776;2024-03-06T12:46:23;94953.13;;;0.12;70.86
21826;BME280;11075;47.944;11.776;2024-03-06T12:48:50;94961.28;;;-0.19;72.71
21826;BME280;11075;47.944;11.776;2024-03-06T12:51:17;94951.69;;;0.39;71.12
21826;BME280;11075;47.944;11.776;2024-03-06T12:53:44;94956.53;;;0.01;72.52
21826;BME280;11075;47.944;11.776;2024-03-06T12:56:11;94952.38;;;0.35;72.51
21826;BME280;11075;47.944;11.776;2024-03-06T12:58:38;94950.53;;;0.35;70.04
21826;BME280;11075;47.944;11.776;2024-03-06T13:01:04;94951.59;;;-0.61;74.87
21826;BME280;11075;47.944;11.776;2024-03-06T13:03:32;94955.91;;;-0.25;73.37
21826;BME280;11075;47.944;11.776;2024-03-06T13:05:59;94956.75;;;-0.01;73.26